Terminal Aerodrome Forecast
Issued by NWS Bismarck, ND

Home | Current Version | Previous Version | Text Only | Print | Product List | Glossary On
Versions: 1 2 3 4 5 6 7 8 9 10 11 12 13 14 15
783
FTUS43 KBIS 261556 AAD
TAFBIS
TAF AMD
KBIS 261556Z 2616/2712 05006KT P6SM SCT120
      TEMPO 2616/2617 29015G30KT -RA SCT040 BKN090
     FM261700 07006KT P6SM -TSRA BKN040CB
     FM262100 04008KT P6SM BKN200
     FM270500 07006KT P6SM BKN200=

USA.gov is the U.S. government's official web portal to all federal, state and local government web resources and services.